createdAt,value
2022-08-29T00:00:37.255Z,99721.56
2022-08-29T00:02:40.676Z,99725.16
2022-08-29T00:04:43.682Z,99724.75
2022-08-29T00:06:47.342Z,99733.59
2022-08-29T00:08:50.347Z,99720.78
2022-08-29T00:10:53.255Z,99730.81
2022-08-29T00:12:57.809Z,99722.41
2022-08-29T00:15:00.724Z,99722.00
2022-08-29T00:17:03.516Z,99718.84
2022-08-29T00:19:06.224Z,99722.91
2022-08-29T00:21:08.822Z,99725.38
2022-08-29T00:23:12.094Z,99729.44
2022-08-29T00:25:15.390Z,99717.47
2022-08-29T00:27:17.996Z,99716.28
2022-08-29T00:29:20.602Z,99716.31
2022-08-29T00:31:23.306Z,99713.16
2022-08-29T00:33:26.039Z,99705.97
2022-08-29T00:35:32.774Z,99702.78
2022-08-29T00:37:35.774Z,99707.63
2022-08-29T00:39:38.585Z,99700.03
2022-08-29T00:41:42.650Z,99695.66
2022-08-29T00:43:46.125Z,99701.28
2022-08-29T00:46:16.095Z,99706.91
2022-08-29T00:48:21.102Z,99702.13
2022-08-29T00:50:36.797Z,99700.50
2022-08-29T00:52:44.804Z,99703.34
2022-08-29T00:54:51.191Z,99699.38
2022-08-29T00:56:55.275Z,99694.19
2022-08-29T00:59:04.050Z,99698.56
2022-08-29T01:01:07.327Z,99699.00
2022-08-29T01:03:10.201Z,99697.00
2022-08-29T01:05:15.535Z,99701.38
2022-08-29T01:07:20.614Z,99698.53
2022-08-29T01:09:24.786Z,99705.34
2022-08-29T01:11:48.827Z,99694.94
2022-08-29T01:13:54.030Z,99700.53
2022-08-29T01:15:57.590Z,99696.91
2022-08-29T01:18:01.433Z,99698.06
2022-08-29T01:20:11.336Z,99700.47
2022-08-29T01:22:58.722Z,99699.22
2022-08-29T01:25:05.693Z,99691.19
2022-08-29T01:27:11.567Z,99696.38
2022-08-29T01:29:15.095Z,99697.94
2022-08-29T01:31:38.549Z,99700.31
2022-08-29T01:33:54.706Z,99689.47
2022-08-29T01:35:57.307Z,99695.09
2022-08-29T01:37:59.867Z,99688.25
2022-08-29T01:40:02.660Z,99692.28
2022-08-29T01:42:10.853Z,99685.50
2022-08-29T01:44:18.789Z,99691.53
2022-08-29T01:46:25.901Z,99698.00
2022-08-29T01:48:28.515Z,99692.06
2022-08-29T01:50:33.115Z,99693.66
2022-08-29T01:52:35.827Z,99691.72
2022-08-29T01:54:41.530Z,99688.53
2022-08-29T01:56:48.478Z,99692.53
2022-08-29T01:58:53.196Z,99682.94
2022-08-29T02:00:55.932Z,99686.16
2022-08-29T02:03:01.254Z,99687.00
2022-08-29T02:05:04.264Z,99694.63
2022-08-29T02:07:11.950Z,99689.00
2022-08-29T02:09:15.425Z,99689.81
2022-08-29T02:11:18.630Z,99684.19
2022-08-29T02:13:21.651Z,99691.81
2022-08-29T02:15:24.396Z,99695.03
2022-08-29T02:17:27.549Z,99700.66
2022-08-29T02:19:30.180Z,99697.44
2022-08-29T02:21:32.822Z,99695.84
2022-08-29T02:23:37.059Z,99699.44
2022-08-29T02:25:42.659Z,99698.63
2022-08-29T02:27:45.484Z,99699.00
2022-08-29T02:29:48.124Z,99703.81
2022-08-29T02:31:50.858Z,99703.41
2022-08-29T02:33:54.384Z,99705.75
2022-08-29T02:35:57.659Z,99710.13
2022-08-29T02:38:01.231Z,99709.72
2022-08-29T02:40:05.409Z,99712.47
2022-08-29T02:42:08.524Z,99714.81
2022-08-29T02:44:11.148Z,99716.41
2022-08-29T02:46:16.698Z,99723.59
2022-08-29T02:48:19.498Z,99730.41
2022-08-29T02:50:22.507Z,99734.78
2022-08-29T02:52:25.116Z,99733.16
2022-08-29T02:54:27.772Z,99737.97
2022-08-29T02:56:30.709Z,99730.31
2022-08-29T02:58:34.370Z,99724.25
2022-08-29T03:00:37.581Z,99727.44
2022-08-29T03:02:40.353Z,99729.81
2022-08-29T03:04:42.926Z,99725.00
2022-08-29T03:06:45.577Z,99724.59
2022-08-29T03:08:48.434Z,99719.75
2022-08-29T03:10:51.724Z,99719.38
2022-08-29T03:12:54.500Z,99725.38
2022-08-29T03:14:57.708Z,99723.75
2022-08-29T03:17:00.348Z,99720.94
2022-08-29T03:19:03.255Z,99714.47
2022-08-29T03:21:05.947Z,99720.88
2022-08-29T03:23:10.049Z,99715.22
2022-08-29T03:25:12.921Z,99721.63
2022-08-29T03:27:15.622Z,99728.81
2022-08-29T03:29:18.336Z,99728.00
2022-08-29T03:31:21.892Z,99729.16
2022-08-29T03:33:24.543Z,99734.75
2022-08-29T03:35:27.166Z,99732.34
2022-08-29T03:37:29.809Z,99731.91
2022-08-29T03:39:35.237Z,99733.50
2022-08-29T03:41:37.898Z,99733.91
2022-08-29T03:43:40.585Z,99732.66
2022-08-29T03:45:43.175Z,99736.97
2022-08-29T03:47:46.392Z,99739.78
2022-08-29T03:49:49.286Z,99741.38
2022-08-29T03:51:52.070Z,99742.16
2022-08-29T03:53:54.719Z,99741.31
2022-08-29T03:55:57.375Z,99737.72
2022-08-29T03:58:00.100Z,99738.91
2022-08-29T04:00:16.268Z,99739.22
2022-08-29T04:02:19.116Z,99737.59
2022-08-29T04:04:54.342Z,99733.53
2022-08-29T04:06:57.021Z,99736.00
2022-08-29T04:09:00.075Z,99730.38
2022-08-29T04:11:09.726Z,99736.34
2022-08-29T04:13:12.729Z,99735.56
2022-08-29T04:15:15.469Z,99734.75
2022-08-29T04:17:19.262Z,99728.72
2022-08-29T04:19:22.844Z,99728.28
2022-08-29T04:21:26.222Z,99725.78
2022-08-29T04:23:30.107Z,99731.34
2022-08-29T04:25:37.851Z,99728.06
2022-08-29T04:27:42.131Z,99729.59
2022-08-29T04:29:48.447Z,99723.91
2022-08-29T04:31:51.110Z,99729.44
2022-08-29T04:33:53.798Z,99728.63
2022-08-29T04:35:56.495Z,99729.75
2022-08-29T04:37:59.413Z,99724.03
2022-08-29T04:40:02.730Z,99723.59
2022-08-29T04:42:06.965Z,99725.16
2022-08-29T04:44:12.243Z,99729.88
2022-08-29T04:46:23.927Z,99723.34
2022-08-29T04:48:27.970Z,99730.91
2022-08-29T04:50:30.839Z,99729.63
2022-08-29T04:52:33.533Z,99738.38
2022-08-29T04:54:36.379Z,99736.19
2022-08-29T04:56:40.852Z,99729.22
2022-08-29T04:58:52.951Z,99738.38
2022-08-29T05:00:56.644Z,99735.13
2022-08-29T05:03:00.494Z,99739.13
2022-08-29T05:05:04.219Z,99729.88
2022-08-29T05:07:07.583Z,99721.47
2022-08-29T05:09:10.622Z,99722.56
2022-08-29T05:11:22.698Z,99724.16
2022-08-29T05:13:26.595Z,99724.53
2022-08-29T05:15:29.663Z,99720.00
2022-08-29T05:17:32.525Z,99727.56
2022-08-29T05:19:35.427Z,99729.09
2022-08-29T05:21:40.035Z,99729.41
2022-08-29T05:23:42.799Z,99734.63
2022-08-29T05:25:45.760Z,99724.88
2022-08-29T05:27:48.537Z,99732.75
2022-08-29T05:29:52.501Z,99740.28
2022-08-29T05:31:55.221Z,99725.66
2022-08-29T05:33:58.249Z,99731.47
2022-08-29T05:36:00.903Z,99732.56
2022-08-29T05:38:08.543Z,99736.69
2022-08-29T05:40:15.913Z,99727.19
2022-08-29T05:42:22.348Z,99734.88
2022-08-29T05:44:25.824Z,99725.97
2022-08-29T05:46:28.570Z,99729.53
2022-08-29T05:48:32.528Z,99732.84
2022-08-29T05:50:43.162Z,99733.84
2022-08-29T05:52:45.841Z,99732.41
2022-08-29T05:54:48.929Z,99729.34
2022-08-29T05:56:52.031Z,99723.47
2022-08-29T05:58:56.058Z,99725.03
2022-08-29T06:00:58.838Z,99721.91
2022-08-29T06:03:01.932Z,99719.41
2022-08-29T06:05:05.843Z,99725.38
2022-08-29T06:07:10.126Z,99726.06
2022-08-29T06:09:14.267Z,99728.44
2022-08-29T06:11:21.131Z,99725.25
2022-08-29T06:13:23.706Z,99724.06
2022-08-29T06:15:29.077Z,99722.47
2022-08-29T06:17:32.548Z,99716.78
2022-08-29T06:19:36.317Z,99706.53
2022-08-29T06:21:39.514Z,99711.63
2022-08-29T06:23:43.349Z,99719.53
2022-08-29T06:25:45.994Z,99711.38
2022-08-29T06:27:48.914Z,99713.25
2022-08-29T06:29:51.567Z,99716.78
2022-08-29T06:31:56.851Z,99725.84
2022-08-29T06:34:01.442Z,99731.22
2022-08-29T06:36:05.802Z,99721.84
2022-08-29T06:38:13.320Z,99727.41
2022-08-29T06:40:16.948Z,99720.44
2022-08-29T06:42:24.026Z,99723.13
2022-08-29T06:44:31.143Z,99723.13
2022-08-29T06:46:37.825Z,99723.78
2022-08-29T06:48:41.238Z,99726.09
2022-08-29T06:50:45.753Z,99719.13
2022-08-29T06:52:48.754Z,99713.38
2022-08-29T06:54:51.682Z,99714.53
2022-08-29T06:56:57.285Z,99717.34
2022-08-29T06:59:00.303Z,99715.56
2022-08-29T07:01:11.434Z,99715.81
2022-08-29T07:03:15.620Z,99721.47
2022-08-29T07:05:19.409Z,99718.53
2022-08-29T07:07:22.047Z,99714.84
2022-08-29T07:09:26.259Z,99712.03
2022-08-29T07:11:30.720Z,99711.25
2022-08-29T07:13:34.808Z,99713.59
2022-08-29T07:18:03.227Z,99694.84
2022-08-29T07:20:06.801Z,99707.81
2022-08-29T07:22:09.580Z,99705.53
2022-08-29T07:24:12.281Z,99710.03
2022-08-29T07:26:28.865Z,99708.72
2022-08-29T07:28:35.015Z,99709.94
2022-08-29T07:30:40.452Z,99707.81
2022-08-29T07:32:46.308Z,99706.31
2022-08-29T07:34:51.778Z,99697.50
2022-08-29T07:36:56.727Z,99711.00
2022-08-29T07:38:59.306Z,99711.72
2022-08-29T07:41:04.905Z,99707.25
2022-08-29T07:43:07.604Z,99715.88
2022-08-29T07:45:11.775Z,99710.22
2022-08-29T07:47:14.380Z,99707.53
2022-08-29T07:49:17.075Z,99704.50
2022-08-29T07:51:24.941Z,99709.34
2022-08-29T07:53:27.950Z,99700.19
2022-08-29T07:55:30.701Z,99705.66
2022-08-29T07:57:33.934Z,99700.13
2022-08-29T07:59:42.428Z,99707.59
2022-08-29T08:01:45.451Z,99703.53
2022-08-29T08:03:48.722Z,99701.19
2022-08-29T08:05:53.411Z,99696.66
2022-08-29T08:07:56.361Z,99695.59
2022-08-29T08:09:59.319Z,99702.09
2022-08-29T08:12:05.073Z,99693.44
2022-08-29T08:14:11.226Z,99694.13
2022-08-29T08:16:17.462Z,99695.34
2022-08-29T08:18:20.141Z,99688.56
2022-08-29T08:20:23.084Z,99685.28
2022-08-29T08:22:25.719Z,99695.34
2022-08-29T08:24:28.317Z,99686.47
2022-08-29T08:26:31.442Z,99688.38
2022-08-29T08:28:34.596Z,99689.69
2022-08-29T08:30:37.322Z,99679.97
2022-08-29T08:32:45.606Z,99684.34
2022-08-29T08:34:49.177Z,99680.34
2022-08-29T08:36:57.199Z,99678.09
2022-08-29T08:39:00.509Z,99681.16
2022-08-29T08:41:33.884Z,99676.06
2022-08-29T08:43:58.826Z,99669.25
2022-08-29T08:46:01.697Z,99669.97
2022-08-29T08:48:10.367Z,99670.78
2022-08-29T08:50:19.087Z,99666.75
2022-08-29T08:52:38.096Z,99664.09
2022-08-29T08:55:03.150Z,99666.81
2022-08-29T08:57:11.958Z,99659.72
2022-08-29T08:59:25.738Z,99662.56
2022-08-29T09:01:43.470Z,99652.22
2022-08-29T09:04:03.037Z,99653.69
2022-08-29T09:06:27.743Z,99659.91
2022-08-29T09:08:38.205Z,99653.47
2022-08-29T09:10:59.999Z,99648.25
2022-08-29T09:13:27.516Z,99650.75
2022-08-29T09:15:43.728Z,99651.94
2022-08-29T09:17:55.852Z,99644.28
2022-08-29T09:19:58.881Z,99643.38
2022-08-29T09:22:16.745Z,99646.22
2022-08-29T09:24:33.270Z,99642.28
2022-08-29T09:26:35.965Z,99638.72
2022-08-29T09:28:40.203Z,99633.06
2022-08-29T09:30:46.480Z,99637.66
2022-08-29T09:33:06.140Z,99641.19
2022-08-29T09:35:21.714Z,99624.25
2022-08-29T09:37:28.703Z,99627.09
2022-08-29T09:39:32.703Z,99627.25
2022-08-29T09:41:35.261Z,99630.38
2022-08-29T09:43:40.656Z,99620.44
2022-08-29T09:46:13.865Z,99621.25
2022-08-29T09:48:17.986Z,99615.84
2022-08-29T09:50:26.101Z,99623.28
2022-08-29T09:52:29.159Z,99620.94
2022-08-29T09:54:32.107Z,99619.53
2022-08-29T09:56:37.590Z,99611.91
2022-08-29T09:58:42.214Z,99623.16
2022-08-29T10:01:11.727Z,99618.56
2022-08-29T10:03:23.643Z,99617.78
2022-08-29T10:05:44.632Z,99610.03
2022-08-29T10:07:53.076Z,99613.34
2022-08-29T10:10:07.267Z,99618.09
2022-08-29T10:12:17.980Z,99616.03
2022-08-29T10:14:20.362Z,99608.91
2022-08-29T10:16:33.520Z,99609.56
2022-08-29T10:18:38.926Z,99608.28
2022-08-29T10:21:00.377Z,99603.84
2022-08-29T10:23:18.126Z,99606.06
2022-08-29T10:25:39.703Z,99597.63
2022-08-29T10:28:07.334Z,99596.22
2022-08-29T10:30:18.635Z,99598.88
2022-08-29T10:33:25.997Z,99601.25
2022-08-29T10:35:44.175Z,99588.72
2022-08-29T10:37:52.602Z,99586.28
2022-08-29T10:40:06.887Z,99585.13
2022-08-29T10:42:16.280Z,99591.22
2022-08-29T10:44:39.424Z,99580.31
2022-08-29T10:46:51.288Z,99582.72
2022-08-29T10:49:05.417Z,99583.34
2022-08-29T10:51:51.518Z,99584.44
2022-08-29T10:54:19.082Z,99578.00
2022-08-29T10:56:39.066Z,99579.47
2022-08-29T10:59:19.924Z,99587.97
2022-08-29T11:01:31.764Z,99581.13
2022-08-29T11:03:50.605Z,99579.34
2022-08-29T11:06:01.468Z,99582.91
2022-08-29T11:08:35.882Z,99581.59
2022-08-29T11:10:44.662Z,99574.53
2022-08-29T11:13:02.185Z,99570.78
2022-08-29T11:15:15.914Z,99571.47
2022-08-29T11:17:19.573Z,99566.84
2022-08-29T11:19:25.039Z,99569.50
2022-08-29T11:21:49.253Z,99567.06
2022-08-29T11:23:52.868Z,99566.63
2022-08-29T11:26:01.732Z,99563.06
2022-08-29T11:28:23.429Z,99559.56
2022-08-29T11:30:48.138Z,99547.28
2022-08-29T11:33:04.113Z,99552.31
2022-08-29T11:35:20.881Z,99563.28
2022-08-29T11:37:29.412Z,99546.88
2022-08-29T11:39:49.547Z,99556.09
2022-08-29T11:41:58.440Z,99546.25
2022-08-29T11:44:31.854Z,99550.69
2022-08-29T11:46:44.738Z,99549.63
2022-08-29T11:48:59.279Z,99538.94
2022-08-29T11:51:39.250Z,99543.50
2022-08-29T11:53:41.991Z,99537.50
2022-08-29T11:56:05.400Z,99533.25
2022-08-29T11:58:28.207Z,99537.50
2022-08-29T12:00:58.585Z,99525.28
2022-08-29T12:03:04.377Z,99522.31
2022-08-29T12:05:20.838Z,99522.53
2022-08-29T12:07:43.110Z,99519.84
2022-08-29T12:09:56.448Z,99521.03
2022-08-29T12:11:59.276Z,99517.41
2022-08-29T12:14:04.659Z,99508.44
2022-08-29T12:16:09.975Z,99517.00
2022-08-29T12:18:18.514Z,99519.66
2022-08-29T12:20:36.354Z,99521.63
2022-08-29T12:22:59.874Z,99519.06
2022-08-29T12:25:28.000Z,99517.69
2022-08-29T12:27:58.250Z,99517.69
2022-08-29T12:30:01.047Z,99520.16
2022-08-29T12:32:22.377Z,99518.09
2022-08-29T12:34:36.814Z,99511.09
2022-08-29T12:37:08.320Z,99513.00
2022-08-29T12:39:27.002Z,99515.94
2022-08-29T12:42:06.860Z,99518.50
2022-08-29T12:44:14.341Z,99515.78
2022-08-29T12:46:23.020Z,99519.19
2022-08-29T12:48:38.332Z,99520.22
2022-08-29T12:50:45.573Z,99518.03
2022-08-29T12:53:25.899Z,99518.53
2022-08-29T12:55:44.506Z,99520.53
2022-08-29T12:57:48.083Z,99520.88
2022-08-29T12:59:53.509Z,99517.44
2022-08-29T13:01:58.250Z,99513.91
2022-08-29T13:04:15.030Z,99517.13
2022-08-29T13:06:18.130Z,99498.94
2022-08-29T13:08:29.626Z,99507.06
2022-08-29T13:10:32.711Z,99503.25
2022-08-29T13:12:36.839Z,99508.16
2022-08-29T13:14:56.739Z,99512.34
2022-08-29T13:16:59.434Z,99505.38
2022-08-29T13:19:11.385Z,99507.25
2022-08-29T13:21:25.306Z,99506.25
2022-08-29T13:23:34.021Z,99492.97
2022-08-29T13:26:03.478Z,99499.19
2022-08-29T13:28:06.181Z,99491.94
2022-08-29T13:30:09.336Z,99491.84
2022-08-29T13:32:27.077Z,99490.78
2022-08-29T13:34:29.796Z,99495.38
2022-08-29T13:36:59.144Z,99495.25
2022-08-29T13:39:25.368Z,99490.94
2022-08-29T13:41:29.127Z,99492.00
2022-08-29T13:43:43.381Z,99486.47
2022-08-29T13:45:46.025Z,99488.28
2022-08-29T13:47:56.922Z,99483.13
2022-08-29T13:50:07.352Z,99477.25
2022-08-29T13:52:11.453Z,99473.34
2022-08-29T13:54:14.651Z,99480.97
2022-08-29T13:56:31.582Z,99481.53
2022-08-29T13:58:35.026Z,99463.53
2022-08-29T14:00:37.891Z,99461.41
2022-08-29T14:02:45.290Z,99464.81
2022-08-29T14:04:48.686Z,99465.28
2022-08-29T14:06:52.525Z,99462.03
2022-08-29T14:08:59.493Z,99472.06
2022-08-29T14:11:02.169Z,99464.63
2022-08-29T14:13:05.576Z,99466.59
2022-08-29T14:15:11.296Z,99456.38
2022-08-29T14:17:18.472Z,99464.19
2022-08-29T14:19:21.548Z,99459.25
2022-08-29T14:21:24.852Z,99447.81
2022-08-29T14:23:27.564Z,99461.31
2022-08-29T14:25:30.573Z,99457.59
2022-08-29T14:27:33.337Z,99455.44
2022-08-29T14:29:36.540Z,99466.09
2022-08-29T14:31:39.626Z,99459.78
2022-08-29T14:33:42.273Z,99460.22
2022-08-29T14:35:48.030Z,99465.00
2022-08-29T14:37:50.706Z,99463.97
2022-08-29T14:39:53.583Z,99459.44
2022-08-29T14:41:56.379Z,99454.22
2022-08-29T14:43:59.292Z,99457.50
2022-08-29T14:46:02.068Z,99459.34
2022-08-29T14:48:06.001Z,99458.78
2022-08-29T14:50:09.791Z,99449.25
2022-08-29T14:52:15.303Z,99446.53
2022-08-29T14:54:18.287Z,99450.41
2022-08-29T14:56:46.986Z,99437.81
2022-08-29T14:58:52.321Z,99445.63
2022-08-29T15:00:55.077Z,99448.28
2022-08-29T15:02:58.417Z,99449.28
2022-08-29T15:05:01.244Z,99446.22
2022-08-29T15:07:11.079Z,99453.13
2022-08-29T15:09:13.816Z,99445.97
2022-08-29T15:11:16.993Z,99446.09
2022-08-29T15:13:19.594Z,99444.06
2022-08-29T15:15:29.519Z,99444.97
2022-08-29T15:17:32.486Z,99444.69
2022-08-29T15:21:58.203Z,99434.84
2022-08-29T15:24:05.379Z,99436.53
2022-08-29T15:26:08.172Z,99448.41
2022-08-29T15:28:13.330Z,99437.53
2022-08-29T15:30:21.796Z,99437.19
2022-08-29T15:32:25.344Z,99440.22
2022-08-29T15:34:29.715Z,99442.84
2022-08-29T15:36:32.993Z,99436.06
2022-08-29T15:38:35.767Z,99431.50
2022-08-29T15:40:38.505Z,99430.03
2022-08-29T15:42:41.457Z,99426.84
2022-08-29T15:44:44.414Z,99439.56
2022-08-29T15:46:50.473Z,99425.19
2022-08-29T15:48:53.991Z,99431.38
2022-08-29T15:50:56.678Z,99434.75
2022-08-29T15:52:59.438Z,99435.59
2022-08-29T15:55:02.219Z,99436.50
2022-08-29T15:57:06.442Z,99437.41
2022-08-29T15:59:11.650Z,99435.88
2022-08-29T16:01:14.248Z,99433.91
2022-08-29T16:03:16.969Z,99438.75
2022-08-29T16:05:20.120Z,99422.78
2022-08-29T16:07:29.087Z,99435.75
2022-08-29T16:09:32.127Z,99421.03
2022-08-29T16:11:35.619Z,99423.25
2022-08-29T16:13:38.477Z,99420.06
2022-08-29T16:15:41.459Z,99422.28
2022-08-29T16:17:44.501Z,99415.56
2022-08-29T16:19:47.266Z,99410.88
2022-08-29T16:21:49.906Z,99408.59
2022-08-29T16:23:53.175Z,99407.56
2022-08-29T16:25:55.765Z,99406.94
2022-08-29T16:28:00.444Z,99406.66
2022-08-29T16:30:03.953Z,99404.78
2022-08-29T16:32:08.032Z,99400.09
2022-08-29T16:34:10.845Z,99408.53
2022-08-29T16:36:14.311Z,99404.56
2022-08-29T16:38:17.351Z,99407.47
2022-08-29T16:40:21.608Z,99409.56
2022-08-29T16:42:29.939Z,99412.41
2022-08-29T16:44:34.111Z,99400.03
2022-08-29T16:46:36.743Z,99404.59
2022-08-29T16:48:39.801Z,99406.69
2022-08-29T16:50:42.470Z,99407.22
2022-08-29T16:52:45.244Z,99402.44
2022-08-29T16:54:47.858Z,99400.44
2022-08-29T16:56:55.489Z,99401.28
2022-08-29T16:59:02.035Z,99401.31
2022-08-29T17:01:04.909Z,99391.63
2022-08-29T17:03:08.153Z,99390.84
2022-08-29T17:05:10.838Z,99388.91
2022-08-29T17:07:13.609Z,99383.28
2022-08-29T17:09:19.575Z,99386.59
2022-08-29T17:11:22.234Z,99381.81
2022-08-29T17:13:24.974Z,99380.66
2022-08-29T17:15:27.590Z,99374.69
2022-08-29T17:17:30.311Z,99373.88
2022-08-29T17:19:34.335Z,99377.13
2022-08-29T17:21:37.812Z,99375.53
2022-08-29T17:23:40.907Z,99377.19
2022-08-29T17:25:43.615Z,99374.81
2022-08-29T17:28:00.973Z,99369.16
2022-08-29T17:30:09.759Z,99369.63
2022-08-29T17:32:12.694Z,99371.66
2022-08-29T17:34:16.428Z,99373.31
2022-08-29T17:36:20.112Z,99356.41
2022-08-29T17:38:23.878Z,99361.97
2022-08-29T17:40:29.427Z,99363.53
2022-08-29T17:42:32.499Z,99364.00
2022-08-29T17:44:35.359Z,99362.75
2022-08-29T17:46:37.971Z,99355.91
2022-08-29T17:48:41.039Z,99362.75
2022-08-29T17:50:43.976Z,99350.78
2022-08-29T17:52:46.628Z,99346.34
2022-08-29T17:54:50.271Z,99348.75
2022-08-29T17:57:00.314Z,99343.19
2022-08-29T17:59:05.586Z,99352.06
2022-08-29T18:01:15.889Z,99355.31
2022-08-29T18:03:19.805Z,99344.47
2022-08-29T18:05:22.671Z,99344.47
2022-08-29T18:07:25.432Z,99338.84
2022-08-29T18:09:31.375Z,99343.63
2022-08-29T18:11:36.712Z,99340.38
2022-08-29T18:13:39.910Z,99334.72
2022-08-29T18:15:43.448Z,99340.31
2022-08-29T18:17:46.669Z,99339.84
2022-08-29T18:19:49.383Z,99343.50
2022-08-29T18:21:53.289Z,99344.69
2022-08-29T18:23:57.060Z,99354.31
2022-08-29T18:26:00.483Z,99360.72
2022-08-29T18:28:03.708Z,99372.34
2022-08-29T18:30:09.071Z,99391.28
2022-08-29T18:32:11.919Z,99373.00
2022-08-29T18:34:15.723Z,99370.41
2022-08-29T18:36:20.107Z,99366.25
2022-08-29T18:38:23.044Z,99373.22
2022-08-29T18:40:26.795Z,99376.56
2022-08-29T18:42:40.440Z,99375.09
2022-08-29T18:44:43.851Z,99376.06
2022-08-29T18:46:48.331Z,99372.97
2022-08-29T18:48:51.600Z,99355.34
2022-08-29T18:50:55.391Z,99347.31
2022-08-29T18:52:58.199Z,99340.50
2022-08-29T18:55:00.863Z,99337.22
2022-08-29T18:57:07.142Z,99340.13
2022-08-29T18:59:10.238Z,99328.91
2022-08-29T19:01:27.061Z,99331.84
2022-08-29T19:03:30.403Z,99327.94
2022-08-29T19:05:35.446Z,99322.38
2022-08-29T19:07:57.756Z,99320.06
2022-08-29T19:10:00.400Z,99312.56
2022-08-29T19:12:03.682Z,99318.59
2022-08-29T19:14:09.760Z,99317.38
2022-08-29T19:16:13.182Z,99306.94
2022-08-29T19:18:16.784Z,99303.69
2022-08-29T19:20:42.464Z,99306.44
2022-08-29T19:22:46.281Z,99304.00
2022-08-29T19:24:49.335Z,99303.19
2022-08-29T19:26:52.003Z,99299.13
2022-08-29T19:28:59.730Z,99298.72
2022-08-29T19:31:03.203Z,99296.69
2022-08-29T19:33:07.078Z,99300.28
2022-08-29T19:35:13.045Z,99297.94
2022-08-29T19:37:16.016Z,99295.13
2022-08-29T19:39:18.909Z,99286.69
2022-08-29T19:41:21.713Z,99293.09
2022-08-29T19:43:31.742Z,99297.06
2022-08-29T19:45:34.879Z,99296.69
2022-08-29T19:47:38.830Z,99301.53
2022-08-29T19:49:45.274Z,99295.91
2022-08-29T19:51:48.220Z,99288.25
2022-08-29T19:53:51.046Z,99289.09
2022-08-29T19:55:55.197Z,99295.41
2022-08-29T19:57:58.274Z,99294.25
2022-08-29T20:00:01.794Z,99297.84
2022-08-29T20:02:07.850Z,99294.25
2022-08-29T20:04:12.955Z,99292.22
2022-08-29T20:06:15.980Z,99286.81
2022-08-29T20:08:18.671Z,99282.47
2022-08-29T20:10:27.686Z,99283.25
2022-08-29T20:12:32.239Z,99272.94
2022-08-29T20:14:35.305Z,99275.16
2022-08-29T20:16:38.530Z,99268.38
2022-08-29T20:18:43.347Z,99268.00
2022-08-29T20:20:48.124Z,99262.38
2022-08-29T20:22:52.580Z,99250.28
2022-08-29T20:24:56.955Z,99244.94
2022-08-29T20:27:01.187Z,99246.00
2022-08-29T20:29:08.219Z,99261.59
2022-08-29T20:31:11.022Z,99267.94
2022-08-29T20:33:14.435Z,99261.47
2022-08-29T20:35:37.697Z,99270.97
2022-08-29T20:37:40.347Z,99268.88
2022-08-29T20:39:47.396Z,99268.34
2022-08-29T20:41:57.056Z,99258.16
2022-08-29T20:44:07.017Z,99258.53
2022-08-29T20:46:12.057Z,99267.41
2022-08-29T20:48:15.011Z,99264.84
2022-08-29T20:50:17.899Z,99257.94
2022-08-29T20:52:22.191Z,99252.66
2022-08-29T20:54:25.404Z,99255.84
2022-08-29T20:56:28.203Z,99249.78
2022-08-29T20:58:31.638Z,99242.91
2022-08-29T21:00:34.453Z,99236.91
2022-08-29T21:02:55.673Z,99239.31
2022-08-29T21:05:16.559Z,99244.66
2022-08-29T21:07:21.040Z,99247.63
2022-08-29T21:09:25.030Z,99246.38
2022-08-29T21:11:27.740Z,99238.72
2022-08-29T21:13:30.321Z,99244.81
2022-08-29T21:15:33.538Z,99243.19
2022-08-29T21:17:36.122Z,99236.84
2022-08-29T21:19:39.880Z,99240.53
2022-08-29T21:21:44.038Z,99241.78
2022-08-29T21:23:47.449Z,99240.19
2022-08-29T21:25:55.608Z,99238.25
2022-08-29T21:27:58.296Z,99231.84
2022-08-29T21:30:02.238Z,99225.84
2022-08-29T21:32:05.895Z,99233.84
2022-08-29T21:34:10.807Z,99223.44
2022-08-29T21:36:25.987Z,99219.47
2022-08-29T21:38:29.435Z,99218.75
2022-08-29T21:40:32.221Z,99216.03
2022-08-29T21:42:34.970Z,99217.25
2022-08-29T21:44:37.589Z,99222.09
2022-08-29T21:46:44.032Z,99211.28
2022-08-29T21:48:47.194Z,99208.91
2022-08-29T21:50:57.588Z,99205.72
2022-08-29T21:53:00.163Z,99203.41
2022-08-29T21:55:05.253Z,99205.09
2022-08-29T21:57:17.553Z,99205.50
2022-08-29T21:59:21.631Z,99211.94
2022-08-29T22:01:30.102Z,99207.97
2022-08-29T22:03:32.845Z,99203.13
2022-08-29T22:05:35.632Z,99209.22
2022-08-29T22:07:43.668Z,99205.66
2022-08-29T22:09:46.281Z,99197.72
2022-08-29T22:11:49.086Z,99204.25
2022-08-29T22:13:53.694Z,99210.66
2022-08-29T22:16:16.894Z,99204.66
2022-08-29T22:18:20.056Z,99203.91
2022-08-29T22:20:22.809Z,99198.72
2022-08-29T22:22:26.238Z,99200.31
2022-08-29T22:24:29.207Z,99206.34
2022-08-29T22:26:34.801Z,99196.34
2022-08-29T22:28:37.843Z,99193.53
2022-08-29T22:30:40.655Z,99195.91
2022-08-29T22:32:43.566Z,99189.47
2022-08-29T22:34:55.707Z,99199.47
2022-08-29T22:36:58.555Z,99192.16
2022-08-29T22:39:01.354Z,99189.41
2022-08-29T22:41:04.770Z,99186.59
2022-08-29T22:43:08.393Z,99198.63
2022-08-29T22:45:14.402Z,99187.81
2022-08-29T22:47:18.585Z,99189.06
2022-08-29T22:49:21.616Z,99188.63
2022-08-29T22:51:27.088Z,99187.81
2022-08-29T22:53:29.777Z,99174.56
2022-08-29T22:55:32.536Z,99176.22
2022-08-29T22:57:35.415Z,99174.25
2022-08-29T22:59:39.916Z,99179.03
2022-08-29T23:01:44.214Z,99179.88
2022-08-29T23:03:47.027Z,99176.28
2022-08-29T23:05:50.097Z,99181.53
2022-08-29T23:07:52.891Z,99181.19
2022-08-29T23:09:56.719Z,99182.41
2022-08-29T23:11:59.463Z,99172.69
2022-08-29T23:14:04.229Z,99173.41
2022-08-29T23:16:07.246Z,99178.94
2022-08-29T23:18:09.975Z,99186.47
2022-08-29T23:20:15.042Z,99191.69
2022-08-29T23:22:17.845Z,99201.69
2022-08-29T23:24:21.592Z,99210.56
2022-08-29T23:26:24.732Z,99213.09
2022-08-29T23:28:28.016Z,99217.13
2022-08-29T23:30:30.723Z,99213.59
2022-08-29T23:32:33.431Z,99207.22
2022-08-29T23:34:36.145Z,99207.75
2022-08-29T23:36:39.067Z,99202.91
2022-08-29T23:38:43.592Z,99217.75
2022-08-29T23:40:46.430Z,99208.16
2022-08-29T23:42:49.105Z,99207.81
2022-08-29T23:44:52.127Z,99219.50
2022-08-29T23:46:58.161Z,99219.13
2022-08-29T23:49:00.989Z,99220.06
2022-08-29T23:51:08.483Z,99229.72
2022-08-29T23:53:11.490Z,99219.34
2022-08-29T23:55:16.649Z,99209.38
2022-08-29T23:57:19.314Z,99188.94
2022-08-29T23:59:40.824Z,99190.28
